Time;durP1;ratioP1;P1;durP2;ratioP2;P2;SDS_P1;SDS_P2;PMS_P1;PMS_P2;Temp;Humidity;BMP_temperature;BMP_pressure;BME280_temperature;BME280_humidity;BME280_pressure;Samples;Min_cycle;Max_cycle;Signal;HPM_P1;HPM_P2
2021/10/12 00:00:38;;;;;;;19.00;10.07;;;;;;;;;;6204270;28;20042;-83
2021/10/12 00:03:40;;;;;;;22.90;10.85;;;;;;;;;;6236569;28;20046;-83
2021/10/12 00:06:41;;;;;;;22.33;10.55;;;;;;;;;;6205206;28;20052;-83
2021/10/12 00:09:47;;;;;;;24.58;10.55;;;;;;;;;;6205993;28;20542;-84
2021/10/12 00:12:48;;;;;;;22.35;10.30;;;;;;;;;;6201595;28;20042;-83
2021/10/12 00:15:50;;;;;;;20.75;10.23;;;;;;;;;;6205668;28;20050;-83
2021/10/12 00:18:51;;;;;;;20.05;10.40;;;;;;;;;;6199616;28;20038;-83
2021/10/12 00:21:53;;;;;;;21.25;9.95;;;;;;;;;;6206312;28;20038;-83
2021/10/12 00:24:55;;;;;;;22.77;10.55;;;;;;;;;;6206374;28;20057;-83
2021/10/12 00:27:56;;;;;;;21.17;9.25;;;;;;;;;;6197051;28;20046;-84
2021/10/12 00:30:58;;;;;;;18.42;9.02;;;;;;;;;;6204546;28;20053;-83
2021/10/12 00:34:00;;;;;;;19.17;9.52;;;;;;;;;;6220051;28;20047;-84
2021/10/12 00:37:02;;;;;;;18.42;9.60;;;;;;;;;;6195888;28;20393;-83
2021/10/12 00:40:05;;;;;;;17.50;8.63;;;;;;;;;;6212833;28;20039;-82
2021/10/12 00:43:07;;;;;;;17.75;8.50;;;;;;;;;;6190884;28;20057;-83
2021/10/12 00:46:09;;;;;;;15.73;7.85;;;;;;;;;;6205387;28;20057;-83
2021/10/12 00:49:11;;;;;;;15.98;8.20;;;;;;;;;;6219374;28;20058;-83
2021/10/12 00:52:13;;;;;;;16.45;8.07;;;;;;;;;;6204163;28;20055;-83
2021/10/12 00:55:14;;;;;;;20.02;7.40;;;;;;;;;;6217675;28;20511;-83
2021/10/12 00:58:17;;;;;;;17.85;8.00;;;;;;;;;;6203481;28;20050;-83
2021/10/12 01:01:20;;;;;;;18.23;7.10;;;;;;;;;;6204208;28;20125;-83
2021/10/12 01:04:22;;;;;;;14.88;6.78;;;;;;;;;;6204453;28;20097;-83
2021/10/12 01:07:23;;;;;;;17.55;6.63;;;;;;;;;;6204897;28;20046;-83
2021/10/12 01:10:25;;;;;;;14.50;6.55;;;;;;;;;;6206223;28;20078;-84
2021/10/12 01:13:27;;;;;;;13.30;6.25;;;;;;;;;;6228600;28;20038;-83
2021/10/12 01:16:28;;;;;;;12.77;5.65;;;;;;;;;;6204512;28;20049;-83
2021/10/12 01:19:30;;;;;;;14.07;5.80;;;;;;;;;;6203305;28;20057;-82
2021/10/12 01:22:32;;;;;;;15.05;6.22;;;;;;;;;;6202214;28;20043;-81
2021/10/12 01:25:34;;;;;;;11.75;5.95;;;;;;;;;;6231698;28;20113;-83
2021/10/12 01:28:35;;;;;;;10.10;4.75;;;;;;;;;;6225230;28;20045;-83
2021/10/12 01:31:37;;;;;;;10.02;5.60;;;;;;;;;;6187656;28;20053;-83
2021/10/12 01:34:39;;;;;;;10.27;5.47;;;;;;;;;;6201393;28;20060;-83
2021/10/12 01:37:41;;;;;;;12.27;5.10;;;;;;;;;;6201947;28;20050;-83
2021/10/12 01:40:43;;;;;;;9.55;4.50;;;;;;;;;;6231261;28;20061;-83
2021/10/12 01:43:45;;;;;;;10.18;5.13;;;;;;;;;;6201121;28;20046;-83
2021/10/12 01:46:47;;;;;;;12.27;5.10;;;;;;;;;;6205195;28;20575;-83
2021/10/12 01:49:48;;;;;;;11.65;4.40;;;;;;;;;;6201940;28;20073;-83
2021/10/12 01:52:50;;;;;;;8.50;4.32;;;;;;;;;;6204643;28;20059;-83
2021/10/12 01:55:51;;;;;;;7.55;3.70;;;;;;;;;;6200770;28;20058;-82
2021/10/12 01:58:53;;;;;;;13.38;5.15;;;;;;;;;;6204698;28;20048;-82
2021/10/12 02:01:55;;;;;;;8.30;3.50;;;;;;;;;;6202771;28;20052;-83
2021/10/12 02:04:57;;;;;;;6.17;3.47;;;;;;;;;;6209130;28;20046;-83
2021/10/12 02:07:59;;;;;;;8.15;3.95;;;;;;;;;;6177825;28;20043;-83
2021/10/12 02:11:02;;;;;;;11.50;4.22;;;;;;;;;;6183893;28;20054;-83
2021/10/12 02:14:06;;;;;;;8.25;4.22;;;;;;;;;;6202186;28;20038;-82
2021/10/12 02:17:07;;;;;;;8.52;4.15;;;;;;;;;;6202867;28;20045;-83
2021/10/12 02:20:10;;;;;;;6.95;4.07;;;;;;;;;;6200791;28;20046;-83
2021/10/12 02:23:11;;;;;;;14.13;4.43;;;;;;;;;;6217730;28;20046;-81
2021/10/12 02:26:13;;;;;;;7.93;4.25;;;;;;;;;;6202900;28;20060;-84
2021/10/12 02:29:14;;;;;;;9.55;4.20;;;;;;;;;;6201909;28;20403;-83
2021/10/12 02:32:17;;;;;;;8.30;4.18;;;;;;;;;;6197408;28;20050;-83
2021/10/12 02:35:19;;;;;;;7.13;4.05;;;;;;;;;;6176389;28;20051;-83
2021/10/12 02:38:20;;;;;;;9.95;4.15;;;;;;;;;;6215289;28;20050;-82
2021/10/12 02:41:22;;;;;;;7.88;4.15;;;;;;;;;;6199769;28;20057;-83
2021/10/12 02:44:24;;;;;;;9.95;4.13;;;;;;;;;;6200743;28;20110;-81
2021/10/12 02:47:25;;;;;;;9.60;4.13;;;;;;;;;;6231835;28;20055;-81
2021/10/12 02:50:27;;;;;;;9.43;4.70;;;;;;;;;;6200775;28;20050;-84
2021/10/12 02:53:28;;;;;;;9.30;4.72;;;;;;;;;;6200741;28;20047;-83
2021/10/12 02:56:30;;;;;;;8.75;4.68;;;;;;;;;;6200732;28;20129;-83
2021/10/12 02:59:32;;;;;;;9.68;5.22;;;;;;;;;;6199771;28;20050;-83
2021/10/12 03:02:33;;;;;;;12.25;5.30;;;;;;;;;;6195448;28;20065;-82
2021/10/12 03:05:36;;;;;;;13.50;5.00;;;;;;;;;;6191048;28;20046;-82
2021/10/12 03:08:38;;;;;;;14.35;5.97;;;;;;;;;;6193330;28;20054;-84
2021/10/12 03:11:40;;;;;;;9.07;6.00;;;;;;;;;;6213654;28;20053;-83
2021/10/12 03:14:42;;;;;;;12.20;5.57;;;;;;;;;;6199857;28;20042;-83
2021/10/12 03:17:43;;;;;;;11.32;5.43;;;;;;;;;;6199590;28;20060;-82
2021/10/12 03:20:45;;;;;;;11.82;5.90;;;;;;;;;;6199330;28;20048;-83
2021/10/12 03:23:46;;;;;;;12.95;5.88;;;;;;;;;;6200406;28;20054;-83
2021/10/12 03:26:48;;;;;;;13.07;6.53;;;;;;;;;;6191564;28;20218;-81
2021/10/12 03:29:50;;;;;;;9.90;6.05;;;;;;;;;;6199965;28;20046;-83
2021/10/12 03:32:52;;;;;;;12.85;6.38;;;;;;;;;;6195532;28;20053;-82
2021/10/12 03:35:57;;;;;;;12.87;6.37;;;;;;;;;;6181040;28;20054;-83
2021/10/12 03:38:59;;;;;;;10.75;5.70;;;;;;;;;;6202581;28;20042;-83
2021/10/12 03:42:01;;;;;;;15.10;6.53;;;;;;;;;;6188473;28;20047;-84
2021/10/12 03:45:04;;;;;;;12.93;6.30;;;;;;;;;;6186506;28;20500;-84
2021/10/12 03:48:06;;;;;;;13.32;6.15;;;;;;;;;;6198655;28;20053;-83
2021/10/12 03:51:08;;;;;;;13.80;5.70;;;;;;;;;;6201302;28;20042;-82
2021/10/12 03:54:10;;;;;;;12.27;6.25;;;;;;;;;;6200746;28;20039;-83
2021/10/12 03:57:12;;;;;;;13.68;6.57;;;;;;;;;;6197828;28;20046;-83
2021/10/12 04:00:13;;;;;;;13.48;6.38;;;;;;;;;;6188353;28;20057;-83
2021/10/12 04:03:15;;;;;;;12.50;6.28;;;;;;;;;;6203265;28;20042;-83
2021/10/12 04:06:17;;;;;;;15.68;6.57;;;;;;;;;;6204281;28;20146;-83
2021/10/12 04:09:19;;;;;;;13.90;6.60;;;;;;;;;;6237385;28;20046;-84
2021/10/12 04:12:20;;;;;;;14.63;6.97;;;;;;;;;;6235172;28;20046;-84
2021/10/12 04:15:22;;;;;;;13.50;7.05;;;;;;;;;;6204729;28;20054;-82
2021/10/12 04:18:23;;;;;;;15.65;6.90;;;;;;;;;;6202903;28;20091;-83
2021/10/12 04:21:26;;;;;;;11.95;6.57;;;;;;;;;;6184713;28;20054;-84
2021/10/12 04:24:28;;;;;;;13.80;6.63;;;;;;;;;;6187044;28;20121;-83
2021/10/12 04:27:30;;;;;;;13.88;6.35;;;;;;;;;;6214992;28;20056;-84
2021/10/12 04:30:32;;;;;;;15.98;6.88;;;;;;;;;;6205776;28;20061;-82
2021/10/12 04:33:34;;;;;;;14.55;6.03;;;;;;;;;;6216090;28;20050;-82
2021/10/12 04:36:36;;;;;;;16.52;7.35;;;;;;;;;;6203854;28;20112;-84
2021/10/12 04:39:37;;;;;;;15.88;6.80;;;;;;;;;;6203554;28;20137;-83
2021/10/12 04:42:39;;;;;;;14.80;6.35;;;;;;;;;;6200908;28;20038;-82
2021/10/12 04:45:40;;;;;;;14.88;6.85;;;;;;;;;;6202905;28;20047;-82
2021/10/12 04:48:42;;;;;;;13.35;6.35;;;;;;;;;;6202368;28;20042;-83
2021/10/12 04:51:43;;;;;;;18.25;7.10;;;;;;;;;;6203173;28;20050;-84
2021/10/12 04:54:45;;;;;;;11.50;5.80;;;;;;;;;;6216769;28;20436;-83
2021/10/12 04:57:47;;;;;;;13.07;5.82;;;;;;;;;;6200860;28;20038;-83
2021/10/12 05:00:48;;;;;;;12.90;5.40;;;;;;;;;;6217239;28;20134;-83
2021/10/12 05:03:50;;;;;;;11.30;5.18;;;;;;;;;;6188402;28;20046;-83
2021/10/12 05:06:52;;;;;;;10.98;5.22;;;;;;;;;;6210286;28;20053;-83
2021/10/12 05:09:54;;;;;;;12.88;6.00;;;;;;;;;;6180148;28;20043;-81
2021/10/12 05:12:55;;;;;;;10.90;5.65;;;;;;;;;;6195219;28;20057;-82
2021/10/12 05:15:59;;;;;;;12.02;4.80;;;;;;;;;;6187388;28;20046;-82
2021/10/12 05:19:01;;;;;;;13.32;5.43;;;;;;;;;;6203066;28;20053;-82
2021/10/12 05:22:02;;;;;;;11.70;4.90;;;;;;;;;;6202861;28;20451;-83
2021/10/12 05:25:04;;;;;;;9.27;4.25;;;;;;;;;;6221274;28;20803;-82
2021/10/12 05:28:08;;;;;;;9.85;4.25;;;;;;;;;;6201203;28;20687;-82
2021/10/12 05:31:13;;;;;;;10.13;4.35;;;;;;;;;;6204501;28;20073;-82
2021/10/12 05:34:16;;;;;;;10.00;3.90;;;;;;;;;;6191949;28;20046;-82
2021/10/12 05:37:18;;;;;;;7.38;3.85;;;;;;;;;;6236473;28;20054;-81
2021/10/12 05:40:19;;;;;;;26.67;9.88;;;;;;;;;;6202506;28;20133;-80
2021/10/12 05:43:21;;;;;;;22.45;7.78;;;;;;;;;;6199368;28;20042;-82
2021/10/12 05:46:23;;;;;;;25.67;9.13;;;;;;;;;;6202087;28;20053;-82
2021/10/12 05:49:25;;;;;;;48.97;20.25;;;;;;;;;;6198837;28;20039;-81
2021/10/12 05:52:26;;;;;;;13.45;7.55;;;;;;;;;;6205832;28;20042;-81
2021/10/12 05:56:13;;;;;;;17.33;9.73;;;;;;;;;;6203834;28;20042;-83
2021/10/12 05:58:53;;;;;;;10.60;5.80;;;;;;;;;;6177518;28;20125;-81
2021/10/12 06:01:55;;;;;;;9.95;4.75;;;;;;;;;;6180149;28;20052;-82
2021/10/12 06:04:57;;;;;;;9.35;4.07;;;;;;;;;;6201341;28;20102;-82
2021/10/12 06:07:58;;;;;;;16.70;10.68;;;;;;;;;;6204679;28;20045;-82
2021/10/12 06:11:01;;;;;;;5.30;3.00;;;;;;;;;;6205657;28;20047;-82
2021/10/12 06:14:02;;;;;;;14.10;9.45;;;;;;;;;;6201276;28;20447;-81
2021/10/12 06:17:04;;;;;;;6.85;3.38;;;;;;;;;;6204220;28;20053;-81
2021/10/12 06:20:06;;;;;;;6.38;4.57;;;;;;;;;;6216875;28;20042;-84
2021/10/12 06:23:11;;;;;;;6.60;3.33;;;;;;;;;;6196391;28;20054;-83
2021/10/12 06:26:12;;;;;;;4.63;2.47;;;;;;;;;;6197075;28;20047;-84
2021/10/12 06:29:14;;;;;;;6.35;3.30;;;;;;;;;;6195392;28;20081;-83
2021/10/12 06:32:16;;;;;;;7.20;3.58;;;;;;;;;;6224666;28;20057;-81
2021/10/12 06:35:18;;;;;;;7.80;3.53;;;;;;;;;;6193749;28;20060;-82
2021/10/12 06:38:19;;;;;;;6.10;3.35;;;;;;;;;;6197511;28;20050;-83
2021/10/12 06:41:21;;;;;;;6.65;2.80;;;;;;;;;;6202257;28;20050;-83
2021/10/12 06:44:42;;;;;;;7.28;3.17;;;;;;;;;;6198855;28;20042;-82
2021/10/12 06:47:44;;;;;;;6.70;3.15;;;;;;;;;;6179676;28;20046;-81
2021/10/12 06:50:46;;;;;;;4.78;2.63;;;;;;;;;;6194831;28;20070;-82
2021/10/12 06:54:07;;;;;;;6.53;2.97;;;;;;;;;;6200285;28;20047;-83
2021/10/12 06:57:12;;;;;;;5.80;3.00;;;;;;;;;;6204526;28;20052;-83
2021/10/12 07:00:16;;;;;;;5.20;2.92;;;;;;;;;;6185871;28;20051;-82
2021/10/12 07:03:18;;;;;;;5.60;3.40;;;;;;;;;;6202605;28;20077;-81
2021/10/12 07:06:20;;;;;;;5.70;3.58;;;;;;;;;;6217864;28;20049;-82
2021/10/12 07:09:21;;;;;;;10.38;3.75;;;;;;;;;;6204250;28;20046;-82
2021/10/12 07:12:23;;;;;;;7.25;3.75;;;;;;;;;;6195715;28;20050;-81
2021/10/12 07:15:24;;;;;;;7.00;3.47;;;;;;;;;;6204980;28;20045;-82
2021/10/12 07:18:26;;;;;;;6.53;3.80;;;;;;;;;;6201577;28;20038;-81
2021/10/12 07:21:28;;;;;;;10.57;3.60;;;;;;;;;;6203105;28;20098;-81
2021/10/12 07:24:29;;;;;;;7.78;3.75;;;;;;;;;;6206490;28;20046;-83
2021/10/12 07:27:31;;;;;;;7.72;3.63;;;;;;;;;;6206910;28;20042;-81
2021/10/12 07:30:52;;;;;;;9.18;4.78;;;;;;;;;;6209396;28;20050;-81
2021/10/12 07:33:53;;;;;;;6.95;3.63;;;;;;;;;;6202949;28;20403;-82
2021/10/12 07:36:55;;;;;;;9.02;3.35;;;;;;;;;;6207955;28;20050;-82
2021/10/12 07:39:57;;;;;;;7.60;3.78;;;;;;;;;;6208772;28;20050;-83
2021/10/12 07:42:58;;;;;;;10.48;3.90;;;;;;;;;;6206305;28;20512;-82
2021/10/12 07:46:00;;;;;;;6.65;3.70;;;;;;;;;;6208938;28;20528;-82
2021/10/12 07:49:02;;;;;;;8.80;3.75;;;;;;;;;;6203190;28;20038;-81
2021/10/12 07:52:18;;;;;;;10.48;3.88;;;;;;;;;;6203905;28;20054;-81
2021/10/12 07:58:28;;;;;;;7.28;3.58;;;;;;;;;;6201136;28;20046;-82
2021/10/12 08:01:31;;;;;;;5.85;3.65;;;;;;;;;;6199668;28;20133;-82
2021/10/12 08:04:32;;;;;;;11.88;3.58;;;;;;;;;;6201334;28;20054;-81
2021/10/12 08:07:34;;;;;;;6.65;3.30;;;;;;;;;;6198577;28;20054;-81
2021/10/12 08:10:55;;;;;;;9.20;3.70;;;;;;;;;;6199256;28;20050;-82
2021/10/12 08:14:01;;;;;;;9.43;4.10;;;;;;;;;;6205366;28;20035;-81
2021/10/12 08:17:03;;;;;;;8.43;3.70;;;;;;;;;;6211892;28;20046;-81
2021/10/12 08:20:07;;;;;;;8.70;3.85;;;;;;;;;;6201885;28;20488;-81
2021/10/12 08:23:09;;;;;;;6.72;4.30;;;;;;;;;;6181844;28;20053;-82
2021/10/12 08:26:10;;;;;;;6.40;3.65;;;;;;;;;;6198532;28;20054;-81
2021/10/12 08:29:12;;;;;;;6.88;4.03;;;;;;;;;;6199587;28;20046;-82
2021/10/12 08:32:14;;;;;;;8.88;4.28;;;;;;;;;;6200821;28;20056;-81
2021/10/12 08:35:15;;;;;;;8.27;4.15;;;;;;;;;;6235184;28;20050;-80
2021/10/12 08:38:19;;;;;;;9.73;4.28;;;;;;;;;;6206044;28;20053;-81
2021/10/12 08:41:27;;;;;;;8.80;4.70;;;;;;;;;;6205870;28;20047;-82
2021/10/12 08:44:28;;;;;;;8.38;4.47;;;;;;;;;;6200221;28;20072;-81
2021/10/12 08:47:31;;;;;;;7.05;3.58;;;;;;;;;;6200228;28;20122;-81
2021/10/12 08:50:39;;;;;;;9.63;3.78;;;;;;;;;;6173846;28;20715;-83
2021/10/12 08:53:41;;;;;;;6.20;4.50;;;;;;;;;;6187214;28;20497;-84
2021/10/12 08:56:43;;;;;;;7.28;3.65;;;;;;;;;;6205169;28;20068;-84
2021/10/12 08:59:45;;;;;;;7.88;4.05;;;;;;;;;;6212868;28;20420;-84
2021/10/12 09:03:17;;;;;;;10.90;5.93;;;;;;;;;;6194513;28;20047;-83
2021/10/12 09:06:26;;;;;;;4.93;3.45;;;;;;;;;;6231264;28;20048;-83
2021/10/12 09:09:45;;;;;;;8.13;4.05;;;;;;;;;;6198449;28;20098;-83
2021/10/12 09:12:48;;;;;;;10.77;4.80;;;;;;;;;;6195212;28;20046;-81
2021/10/12 09:16:14;;;;;;;56.70;19.80;;;;;;;;;;6192727;28;20046;-80
2021/10/12 09:19:18;;;;;;;23.35;10.75;;;;;;;;;;6185125;28;20058;-82
2021/10/12 09:22:20;;;;;;;21.20;9.60;;;;;;;;;;6191934;28;20065;-82
2021/10/12 09:25:34;;;;;;;6.45;4.55;;;;;;;;;;6194282;28;20081;-81
2021/10/12 09:29:02;;;;;;;14.35;8.13;;;;;;;;;;6191245;28;20042;-81
2021/10/12 09:32:38;;;;;;;7.88;4.05;;;;;;;;;;6207359;28;20078;-83
2021/10/12 09:35:41;;;;;;;6.70;4.07;;;;;;;;;;6185299;28;20208;-82
2021/10/12 09:38:46;;;;;;;6.80;4.28;;;;;;;;;;6186238;28;20094;-83
2021/10/12 09:41:59;;;;;;;8.55;5.10;;;;;;;;;;6205301;28;20675;-82
2021/10/12 09:45:05;;;;;;;44.67;21.48;;;;;;;;;;6195089;28;20046;-83
2021/10/12 09:48:27;;;;;;;;;;;;;;;;;;6179665;28;20067;-81
2021/10/12 09:51:29;;;;;;;8.52;5.55;;;;;;;;;;6195857;28;19921;-80
2021/10/12 09:54:35;;;;;;;5.13;3.78;;;;;;;;;;6210670;28;20120;-81
2021/10/12 09:57:38;;;;;;;8.65;4.72;;;;;;;;;;6189412;28;20038;-82
2021/10/12 10:00:39;;;;;;;21.97;10.67;;;;;;;;;;6181636;28;20055;-83
2021/10/12 10:03:41;;;;;;;6.25;3.97;;;;;;;;;;6216496;28;20060;-81
2021/10/12 10:06:48;;;;;;;6.72;3.67;;;;;;;;;;6195149;28;20054;-81
2021/10/12 10:09:54;;;;;;;3.80;3.35;;;;;;;;;;6210372;28;20068;-81
2021/10/12 10:12:56;;;;;;;5.80;4.18;;;;;;;;;;6187976;28;20057;-82
2021/10/12 10:15:58;;;;;;;24.60;12.65;;;;;;;;;;6188241;28;20060;-84
2021/10/12 10:19:30;;;;;;;9.68;5.80;;;;;;;;;;6174346;28;20038;-82
2021/10/12 10:22:48;;;;;;;7.00;3.75;;;;;;;;;;6206918;28;20042;-82
2021/10/12 10:25:50;;;;;;;5.20;3.30;;;;;;;;;;6190467;28;20049;-82
2021/10/12 10:28:55;;;;;;;10.93;6.18;;;;;;;;;;6223415;28;20108;-84
2021/10/12 10:32:00;;;;;;;5.30;3.80;;;;;;;;;;6202563;28;20419;-83
2021/10/12 10:35:04;;;;;;;8.18;3.47;;;;;;;;;;6194358;28;20041;-83
2021/10/12 10:38:21;;;;;;;11.45;6.65;;;;;;;;;;6175385;28;20057;-81
2021/10/12 10:41:24;;;;;;;4.63;3.40;;;;;;;;;;6210707;28;20110;-81
2021/10/12 10:45:02;;;;;;;14.15;9.02;;;;;;;;;;6183842;28;20044;-82
2021/10/12 10:48:04;;;;;;;5.68;3.67;;;;;;;;;;6186097;28;20100;-79
2021/10/12 10:51:22;;;;;;;7.45;4.80;;;;;;;;;;6196806;28;20046;-82
2021/10/12 10:54:42;;;;;;;4.38;3.08;;;;;;;;;;6182951;28;20441;-82
2021/10/12 10:58:14;;;;;;;2.80;2.55;;;;;;;;;;6224139;28;20075;-82
2021/10/12 11:01:35;;;;;;;3.70;3.25;;;;;;;;;;6185206;28;20140;-82
2021/10/12 11:04:41;;;;;;;4.60;3.28;;;;;;;;;;6186156;28;20420;-81
2021/10/12 11:07:43;;;;;;;8.65;7.20;;;;;;;;;;6191823;28;20124;-83
2021/10/12 11:10:48;;;;;;;2.60;2.33;;;;;;;;;;6189138;28;20039;-82
2021/10/12 11:13:51;;;;;;;2.90;2.38;;;;;;;;;;6178873;28;20054;-81
2021/10/12 11:17:08;;;;;;;4.50;3.08;;;;;;;;;;6204694;28;20125;-82
2021/10/12 11:20:12;;;;;;;2.17;1.98;;;;;;;;;;6188364;28;20061;-80
2021/10/12 11:23:23;;;;;;;3.30;2.10;;;;;;;;;;6188989;28;20047;-82
2021/10/12 11:26:30;;;;;;;2.42;2.22;;;;;;;;;;6193832;28;20046;-83
2021/10/12 11:29:32;;;;;;;1.92;1.77;;;;;;;;;;6196628;28;20056;-81
2021/10/12 11:32:36;;;;;;;2.40;2.10;;;;;;;;;;6191213;28;20101;-78
2021/10/12 11:35:39;;;;;;;3.15;2.28;;;;;;;;;;6173457;28;20126;-81
2021/10/12 11:38:48;;;;;;;3.45;2.40;;;;;;;;;;6174827;28;20042;-81
2021/10/12 11:41:50;;;;;;;3.00;2.53;;;;;;;;;;6195063;28;20046;-81
2021/10/12 11:44:51;;;;;;;3.70;2.42;;;;;;;;;;6194738;28;20482;-82
2021/10/12 11:47:54;;;;;;;3.25;2.72;;;;;;;;;;6196782;28;20045;-81
2021/10/12 11:50:55;;;;;;;5.97;3.40;;;;;;;;;;6194535;28;20054;-82
2021/10/12 11:53:59;;;;;;;4.47;2.80;;;;;;;;;;6195728;28;20053;-81
2021/10/12 11:57:05;;;;;;;4.68;2.90;;;;;;;;;;6189561;28;20073;-80
2021/10/12 12:00:08;;;;;;;4.18;2.90;;;;;;;;;;6188683;28;20050;-80
2021/10/12 12:03:19;;;;;;;4.30;2.95;;;;;;;;;;6212221;28;20046;-79
2021/10/12 12:06:24;;;;;;;4.18;3.00;;;;;;;;;;6195565;28;20056;-81
2021/10/12 12:09:28;;;;;;;3.92;2.55;;;;;;;;;;6194380;28;20042;-78
2021/10/12 12:12:29;;;;;;;3.83;2.80;;;;;;;;;;6193878;28;20057;-79
2021/10/12 12:15:31;;;;;;;3.88;2.40;;;;;;;;;;6197774;28;20133;-78
2021/10/12 12:18:39;;;;;;;3.22;2.33;;;;;;;;;;6187200;28;20065;-80
2021/10/12 12:21:43;;;;;;;2.50;2.05;;;;;;;;;;6187611;28;20049;-78
2021/10/12 12:24:56;;;;;;;1.60;1.48;;;;;;;;;;6198103;28;20047;-78
2021/10/12 12:28:00;;;;;;;2.05;1.65;;;;;;;;;;6210559;28;20504;-79
2021/10/12 12:31:24;;;;;;;2.08;1.60;;;;;;;;;;6228842;28;20415;-78
2021/10/12 12:34:35;;;;;;;1.40;1.30;;;;;;;;;;6226690;28;20039;-81
2021/10/12 12:37:36;;;;;;;1.33;1.23;;;;;;;;;;6197437;28;20050;-80
2021/10/12 12:40:39;;;;;;;1.85;1.40;;;;;;;;;;6197312;28;20038;-80
2021/10/12 12:43:50;;;;;;;1.60;1.50;;;;;;;;;;6195662;28;20126;-82
2021/10/12 12:46:58;;;;;;;3.78;1.60;;;;;;;;;;6196214;28;20046;-78
2021/10/12 12:50:12;;;;;;;1.63;1.30;;;;;;;;;;6192091;28;20050;-82
2021/10/12 12:53:37;;;;;;;2.50;1.38;;;;;;;;;;6198183;28;20057;-82
2021/10/12 12:56:39;;;;;;;1.30;1.20;;;;;;;;;;6196939;28;20053;-80
2021/10/12 12:59:42;;;;;;;1.92;1.45;;;;;;;;;;6198827;28;20039;-80
2021/10/12 13:02:55;;;;;;;1.58;1.30;;;;;;;;;;6196796;28;20046;-81
2021/10/12 13:05:57;;;;;;;2.25;1.40;;;;;;;;;;6197006;28;20050;-79
2021/10/12 13:09:01;;;;;;;1.52;1.40;;;;;;;;;;6195830;28;20078;-80
2021/10/12 13:12:03;;;;;;;1.90;1.70;;;;;;;;;;6196497;28;20056;-81
2021/10/12 13:15:05;;;;;;;1.50;1.30;;;;;;;;;;6225037;28;20078;-81
2021/10/12 13:18:08;;;;;;;;;;;;;;;;;;6211169;28;20511;-81
2021/10/12 13:21:09;;;;;;;1.75;1.38;;;;;;;;;;6228011;28;19958;-81
2021/10/12 13:24:11;;;;;;;2.03;1.40;;;;;;;;;;6228830;28;20057;-80
2021/10/12 13:27:14;;;;;;;1.55;1.42;;;;;;;;;;6196530;28;20141;-81
2021/10/12 13:30:15;;;;;;;1.58;1.48;;;;;;;;;;6196425;28;20050;-81
2021/10/12 13:33:17;;;;;;;2.30;1.60;;;;;;;;;;6196592;28;20427;-80
2021/10/12 13:36:18;;;;;;;2.10;1.90;;;;;;;;;;6197146;28;20506;-81
2021/10/12 13:39:20;;;;;;;2.17;1.95;;;;;;;;;;6226656;28;20474;-80
2021/10/12 13:42:22;;;;;;;2.25;2.05;;;;;;;;;;6189069;28;20057;-81
2021/10/12 13:45:23;;;;;;;2.15;1.95;;;;;;;;;;6191033;28;20046;-79
2021/10/12 13:48:25;;;;;;;2.55;2.25;;;;;;;;;;6210373;28;20498;-79
2021/10/12 13:51:27;;;;;;;2.83;2.33;;;;;;;;;;6192166;28;20039;-79
2021/10/12 13:54:31;;;;;;;2.42;2.20;;;;;;;;;;6205599;28;20460;-79
2021/10/12 13:57:35;;;;;;;2.47;2.28;;;;;;;;;;6189770;28;20046;-81
2021/10/12 14:00:37;;;;;;;2.42;2.22;;;;;;;;;;6189518;28;20049;-79
2021/10/12 14:03:39;;;;;;;2.63;2.20;;;;;;;;;;6190321;28;20057;-79
2021/10/12 14:06:41;;;;;;;3.15;2.38;;;;;;;;;;6192455;28;20049;-81
2021/10/12 14:09:49;;;;;;;3.30;2.60;;;;;;;;;;6191166;28;20064;-79
2021/10/12 14:12:50;;;;;;;3.10;2.80;;;;;;;;;;6191524;28;20496;-80
2021/10/12 14:15:52;;;;;;;4.40;2.90;;;;;;;;;;6208239;28;20046;-81
2021/10/12 14:18:54;;;;;;;5.70;3.10;;;;;;;;;;6190806;28;20065;-81
2021/10/12 14:21:56;;;;;;;3.17;2.88;;;;;;;;;;6182244;28;20189;-79
2021/10/12 14:24:57;;;;;;;1.65;1.48;;;;;;;;;;6187730;28;20042;-80
2021/10/12 14:27:59;;;;;;;2.05;1.40;;;;;;;;;;6192896;28;20050;-78
2021/10/12 14:31:00;;;;;;;15.70;10.07;;;;;;;;;;6185712;28;20038;-79
2021/10/12 14:34:02;;;;;;;9.90;5.55;;;;;;;;;;6189511;28;20043;-81
2021/10/12 14:37:06;;;;;;;2.85;2.55;;;;;;;;;;6171337;28;20045;-78
2021/10/12 14:40:12;;;;;;;1.98;1.67;;;;;;;;;;6176431;28;20058;-80
2021/10/12 14:43:14;;;;;;;3.58;2.15;;;;;;;;;;6187433;28;20050;-78
2021/10/12 14:46:16;;;;;;;2.60;1.80;;;;;;;;;;6187166;28;20399;-77
2021/10/12 14:49:18;;;;;;;3.42;1.95;;;;;;;;;;6187634;28;20113;-80
2021/10/12 14:52:19;;;;;;;3.25;2.25;;;;;;;;;;6192193;28;20042;-79
2021/10/12 14:55:23;;;;;;;2.45;1.80;;;;;;;;;;6190102;28;20038;-81
2021/10/12 14:58:26;;;;;;;1.50;1.30;;;;;;;;;;6180918;28;20054;-76
2021/10/12 15:01:28;;;;;;;2.42;1.48;;;;;;;;;;6178988;28;20061;-80
2021/10/12 15:04:31;;;;;;;3.00;1.27;;;;;;;;;;6200047;28;20050;-79
2021/10/12 15:07:34;;;;;;;1.98;1.30;;;;;;;;;;6181256;28;20046;-77
2021/10/12 15:10:35;;;;;;;2.45;1.02;;;;;;;;;;6168717;28;20551;-76
2021/10/12 15:13:37;;;;;;;1.35;1.08;;;;;;;;;;6170396;28;20039;-78
2021/10/12 15:16:44;;;;;;;2.67;1.20;;;;;;;;;;6165550;28;20058;-76
2021/10/12 15:19:45;;;;;;;1.52;1.25;;;;;;;;;;6178349;28;20049;-78
2021/10/12 15:22:47;;;;;;;1.90;1.20;;;;;;;;;;6186227;28;20513;-79
2021/10/12 15:25:48;;;;;;;2.58;1.35;;;;;;;;;;6187765;28;20452;-77
2021/10/12 15:28:50;;;;;;;1.40;1.30;;;;;;;;;;6186421;28;20121;-79
2021/10/12 15:31:52;;;;;;;3.83;1.77;;;;;;;;;;6187904;28;20042;-77
2021/10/12 15:34:54;;;;;;;1.80;1.60;;;;;;;;;;6183603;28;20039;-78
2021/10/12 15:37:55;;;;;;;2.10;1.30;;;;;;;;;;6188001;28;20507;-76
2021/10/12 15:40:57;;;;;;;2.45;1.23;;;;;;;;;;6186839;28;20395;-79
2021/10/12 15:43:59;;;;;;;2.90;1.40;;;;;;;;;;6191073;28;20099;-77
2021/10/12 15:47:01;;;;;;;2.53;1.48;;;;;;;;;;6190133;28;20046;-76
2021/10/12 15:50:03;;;;;;;1.35;1.15;;;;;;;;;;6190518;28;20054;-78
2021/10/12 15:53:05;;;;;;;2.35;1.52;;;;;;;;;;6191538;28;20043;-78
2021/10/12 15:56:06;;;;;;;2.03;1.67;;;;;;;;;;6188237;28;20046;-77
2021/10/12 15:59:08;;;;;;;2.45;1.52;;;;;;;;;;6185340;28;20092;-77
2021/10/12 16:02:09;;;;;;;1.90;1.70;;;;;;;;;;6179041;28;20049;-77
2021/10/12 16:05:11;;;;;;;2.95;1.50;;;;;;;;;;6182662;28;20046;-77
2021/10/12 16:08:13;;;;;;;2.50;1.70;;;;;;;;;;6183148;28;20054;-77
2021/10/12 16:11:18;;;;;;;2.28;1.38;;;;;;;;;;6175697;28;20054;-76
2021/10/12 16:14:21;;;;;;;2.42;1.75;;;;;;;;;;6187458;28;20042;-78
2021/10/12 16:21:11;;;;;;;2.42;1.50;;;;;;;;;;6195459;28;19927;-78
2021/10/12 16:24:10;;;;;;;2.40;1.55;;;;;;;;;;6184239;28;20048;-77
2021/10/12 16:27:12;;;;;;;1.98;1.42;;;;;;;;;;6173423;28;20630;-78
2021/10/12 16:30:20;;;;;;;3.83;2.00;;;;;;;;;;6183361;28;20058;-79
2021/10/12 16:33:22;;;;;;;3.22;1.80;;;;;;;;;;6183143;28;20084;-79
2021/10/12 16:36:24;;;;;;;2.78;1.98;;;;;;;;;;6187706;28;20065;-79
2021/10/12 16:39:31;;;;;;;4.18;2.33;;;;;;;;;;6187533;28;20496;-78
2021/10/12 16:42:33;;;;;;;5.30;2.78;;;;;;;;;;6182910;28;20046;-79
2021/10/12 16:45:37;;;;;;;5.72;4.60;;;;;;;;;;6184610;28;20605;-78
2021/10/12 16:48:38;;;;;;;;;;;;;;;;;;6187222;28;20046;-80
2021/10/12 16:51:40;;;;;;;5.43;3.50;;;;;;;;;;6178506;28;19922;-79
2021/10/12 16:54:42;;;;;;;6.45;3.17;;;;;;;;;;6180357;28;20054;-77
2021/10/12 16:57:44;;;;;;;3.25;2.00;;;;;;;;;;6189534;28;20050;-76
2021/10/12 17:00:46;;;;;;;3.13;1.75;;;;;;;;;;6158388;28;20411;-80
2021/10/12 17:03:47;;;;;;;3.70;2.10;;;;;;;;;;6180172;28;20038;-78
2021/10/12 17:06:49;;;;;;;3.53;2.25;;;;;;;;;;6191434;28;20043;-79
2021/10/12 17:09:51;;;;;;;14.93;10.23;;;;;;;;;;6190890;28;20054;-79
2021/10/12 17:12:56;;;;;;;27.60;18.42;;;;;;;;;;6205124;28;20050;-79
2021/10/12 17:16:00;;;;;;;7.28;5.47;;;;;;;;;;6192786;28;20048;-81
2021/10/12 17:19:03;;;;;;;6.28;3.40;;;;;;;;;;6191932;28;20057;-78
2021/10/12 17:22:05;;;;;;;19.02;11.20;;;;;;;;;;6184638;28;20105;-77
2021/10/12 17:25:07;;;;;;;8.48;4.18;;;;;;;;;;6189430;28;20057;-79
2021/10/12 17:28:09;;;;;;;50.28;23.42;;;;;;;;;;6220813;28;20046;-81
2021/10/12 17:31:11;;;;;;;519.75;207.77;;;;;;;;;;6192485;28;20412;-78
2021/10/12 17:34:12;;;;;;;88.88;35.08;;;;;;;;;;6187317;28;20046;-79
2021/10/12 17:37:14;;;;;;;42.58;19.98;;;;;;;;;;6192106;28;20053;-80
2021/10/12 17:40:16;;;;;;;68.03;39.22;;;;;;;;;;6220846;28;20105;-78
2021/10/12 17:43:20;;;;;;;71.28;33.13;;;;;;;;;;6188631;28;20051;-80
2021/10/12 17:46:23;;;;;;;49.55;23.27;;;;;;;;;;6220937;28;20496;-79
2021/10/12 17:49:25;;;;;;;49.72;23.05;;;;;;;;;;6188989;28;20053;-78
2021/10/12 17:52:30;;;;;;;54.25;27.13;;;;;;;;;;6186392;28;20046;-80
2021/10/12 17:55:31;;;;;;;8.23;5.50;;;;;;;;;;6188438;28;20077;-78
2021/10/12 17:58:34;;;;;;;174.73;88.70;;;;;;;;;;6182028;28;20629;-79
2021/10/12 18:01:36;;;;;;;20.95;11.73;;;;;;;;;;6191281;28;20125;-78
2021/10/12 18:04:41;;;;;;;55.85;27.95;;;;;;;;;;6186008;28;20397;-78
2021/10/12 18:07:46;;;;;;;15.45;7.05;;;;;;;;;;6189442;28;20042;-78
2021/10/12 18:10:48;;;;;;;10.52;5.50;;;;;;;;;;6189286;28;20053;-80
2021/10/12 18:13:51;;;;;;;74.53;32.60;;;;;;;;;;6183826;28;20219;-78
2021/10/12 18:16:53;;;;;;;41.35;18.58;;;;;;;;;;6154313;28;20070;-79
2021/10/12 18:19:55;;;;;;;64.38;30.63;;;;;;;;;;6189150;28;20041;-78
2021/10/12 18:22:56;;;;;;;22.20;10.20;;;;;;;;;;6186830;28;20038;-81